Florida A and M University, Florida
Current Conditions -  °F | °C
As of 1:53 AM on Friday 31 Oct 2014 (Local Time) from KTLH Reporting Station
Clear Clear  
Wind Chill: 46°   Ceiling: Unl
Heat Index: 46°   Visibility: 10mi
Dew Point: 41°   Wind: 3mph
Humidity: 83%   Direction: 270°W
Pressure: 29.95"   Gusts: NA
Location:  30.4262°N, 84.2888°W
Report Text: KTLH 310553Z AUTO 27003KT 10SM CLR 08/05 A2995 RMK AO2 SLP140 T00780050 10172 20078 57005 $
Loading
Personal Weather Stations






























Interactive Weather Map
Tropical Storm Tracking
New forecast layout! Learn more

10-Day Weather Forecast

Advertisements
Track Severe Weather on mobile